createdAt,value
2023-03-31T00:01:57.815Z,68.38
2023-03-31T00:09:01.988Z,68.75
2023-03-31T00:16:06.483Z,67.78
2023-03-31T00:23:10.835Z,67.97
2023-03-31T00:30:13.520Z,67.58
2023-03-31T00:37:15.978Z,67.67
2023-03-31T00:44:25.348Z,67.72
2023-03-31T00:51:28.696Z,68.07
2023-03-31T00:58:33.177Z,67.27
2023-03-31T01:05:56.704Z,68.45
2023-03-31T01:12:58.272Z,67.41
2023-03-31T01:20:36.471Z,67.96
2023-03-31T01:27:54.104Z,68.39
2023-03-31T01:35:01.720Z,68.71
2023-03-31T01:42:21.270Z,69.65
2023-03-31T01:49:58.210Z,69.40
2023-03-31T01:57:08.712Z,69.31
2023-03-31T02:04:13.465Z,69.36
2023-03-31T02:11:15.390Z,69.82
2023-03-31T02:18:18.624Z,69.12
2023-03-31T02:25:23.198Z,69.45
2023-03-31T02:32:39.325Z,70.10
2023-03-31T02:39:41.960Z,69.15
2023-03-31T02:46:44.224Z,69.70
2023-03-31T02:54:20.475Z,68.79
2023-03-31T03:01:34.990Z,69.24
2023-03-31T03:08:55.334Z,69.26
2023-03-31T03:16:13.846Z,69.00
2023-03-31T03:23:16.627Z,69.92
2023-03-31T03:30:18.147Z,68.71
2023-03-31T03:37:19.745Z,70.62
2023-03-31T03:44:21.276Z,71.32
2023-03-31T03:51:23.036Z,71.29
2023-03-31T03:58:24.608Z,70.92
2023-03-31T04:05:26.153Z,71.62
2023-03-31T04:12:27.675Z,72.61
2023-03-31T04:19:29.221Z,72.30
2023-03-31T04:26:39.058Z,72.25
2023-03-31T04:33:40.759Z,73.27
2023-03-31T04:40:42.320Z,72.59
2023-03-31T04:47:43.939Z,72.54
2023-03-31T04:54:45.647Z,73.76
2023-03-31T05:01:48.039Z,72.91
2023-03-31T05:08:49.601Z,73.51
2023-03-31T05:15:51.689Z,72.99
2023-03-31T05:22:53.299Z,72.57
2023-03-31T05:29:54.799Z,71.25
2023-03-31T05:36:56.341Z,72.53
2023-03-31T05:43:57.994Z,72.45
2023-03-31T05:50:59.795Z,72.81
2023-03-31T05:58:01.324Z,72.43
2023-03-31T06:05:03.538Z,72.46
2023-03-31T06:12:05.556Z,70.79
2023-03-31T06:19:07.225Z,70.91
2023-03-31T06:26:12.866Z,69.42
2023-03-31T06:33:14.611Z,69.83
2023-03-31T06:40:16.516Z,70.26
2023-03-31T06:47:18.292Z,70.12
2023-03-31T06:54:19.932Z,69.75
2023-03-31T07:01:21.591Z,68.23
2023-03-31T07:08:23.742Z,68.23
2023-03-31T07:15:28.180Z,67.31
2023-03-31T07:22:30.113Z,66.41
2023-03-31T07:29:31.746Z,64.80
2023-03-31T07:36:33.337Z,64.17
2023-03-31T07:43:34.935Z,64.15
2023-03-31T07:50:36.629Z,63.58
2023-03-31T07:57:42.309Z,61.96
2023-03-31T08:04:44.774Z,60.67
2023-03-31T08:11:47.654Z,58.75
2023-03-31T08:18:49.783Z,57.86
2023-03-31T08:25:51.887Z,58.52
2023-03-31T08:32:53.530Z,57.69
2023-03-31T08:39:56.058Z,56.35
2023-03-31T08:46:58.602Z,56.35
2023-03-31T08:54:05.611Z,55.05
2023-03-31T09:01:14.147Z,54.08
2023-03-31T09:08:38.586Z,54.53
2023-03-31T09:15:46.356Z,54.28
2023-03-31T09:22:50.276Z,53.13
2023-03-31T09:30:09.380Z,54.01
2023-03-31T09:37:11.549Z,53.73
2023-03-31T09:44:21.054Z,52.26
2023-03-31T09:51:26.116Z,50.53
2023-03-31T09:58:28.446Z,51.59
2023-03-31T10:05:43.819Z,52.42
2023-03-31T10:12:50.978Z,52.36
2023-03-31T10:19:53.501Z,53.27
2023-03-31T10:26:55.801Z,53.95
2023-03-31T10:33:58.525Z,54.66
2023-03-31T10:41:00.190Z,55.19
2023-03-31T10:48:02.016Z,56.67
2023-03-31T10:55:03.830Z,55.54
2023-03-31T11:02:29.884Z,54.92
2023-03-31T11:09:50.218Z,54.94
2023-03-31T11:17:06.929Z,60.05
2023-03-31T11:24:32.792Z,62.57
2023-03-31T11:31:50.702Z,58.79
2023-03-31T11:39:04.300Z,57.68
2023-03-31T11:46:21.420Z,57.00
2023-03-31T11:53:43.195Z,55.70
2023-03-31T12:00:48.258Z,54.31
2023-03-31T12:08:22.149Z,53.46
2023-03-31T12:15:29.971Z,55.41
2023-03-31T12:22:43.863Z,56.82
2023-03-31T12:29:48.202Z,57.42
2023-03-31T12:36:55.287Z,55.03
2023-03-31T12:44:02.413Z,53.05
2023-03-31T12:51:20.547Z,52.62
2023-03-31T12:58:26.485Z,55.57
2023-03-31T13:05:37.513Z,60.39
2023-03-31T13:12:39.155Z,60.58
2023-03-31T13:19:41.259Z,62.13
2023-03-31T13:26:46.699Z,64.58
2023-03-31T13:33:58.134Z,66.69
2023-03-31T13:41:41.472Z,69.47
2023-03-31T13:49:19.842Z,76.53
2023-03-31T13:56:48.718Z,78.79
2023-03-31T14:04:14.381Z,79.95
2023-03-31T14:11:36.193Z,80.20
2023-03-31T14:18:38.595Z,79.36
2023-03-31T14:26:08.293Z,80.54
2023-03-31T14:33:21.908Z,81.02
2023-03-31T14:40:23.738Z,79.50
2023-03-31T14:47:28.501Z,78.07
2023-03-31T14:54:34.185Z,76.82
2023-03-31T15:01:39.192Z,77.73
2023-03-31T15:08:40.825Z,77.67
2023-03-31T15:15:45.510Z,78.33
2023-03-31T15:22:47.158Z,79.29
2023-03-31T15:29:49.946Z,80.87
2023-03-31T15:36:54.203Z,80.09
2023-03-31T15:44:19.631Z,80.36
2023-03-31T15:51:27.868Z,79.77
2023-03-31T15:58:53.105Z,80.05
2023-03-31T16:05:55.655Z,79.67
2023-03-31T16:12:59.301Z,80.99
2023-03-31T16:20:22.972Z,79.07
2023-03-31T16:27:24.606Z,80.99
2023-03-31T16:34:26.410Z,80.09
2023-03-31T16:41:28.510Z,80.42
2023-03-31T16:48:31.629Z,81.27
2023-03-31T16:55:33.249Z,80.84
2023-03-31T17:02:34.996Z,81.12
2023-03-31T17:09:36.665Z,80.17
2023-03-31T17:16:47.457Z,77.76
2023-03-31T17:23:50.277Z,79.33
2023-03-31T17:30:52.300Z,79.97
2023-03-31T17:37:55.170Z,78.65
2023-03-31T17:44:58.415Z,80.17
2023-03-31T17:52:00.378Z,79.62
2023-03-31T17:59:02.280Z,80.06
2023-03-31T18:06:06.507Z,80.08
2023-03-31T18:13:08.458Z,80.33
2023-03-31T18:20:10.636Z,80.46
2023-03-31T18:27:12.464Z,80.86
2023-03-31T18:34:16.064Z,81.40
2023-03-31T18:41:17.743Z,81.68
2023-03-31T18:48:21.792Z,83.10
2023-03-31T18:55:23.476Z,82.91
2023-03-31T19:02:25.651Z,83.83
2023-03-31T19:09:27.888Z,84.35
2023-03-31T19:16:29.620Z,84.11
2023-03-31T19:23:31.649Z,84.06
2023-03-31T19:30:33.206Z,84.87
2023-03-31T19:37:34.813Z,85.29
2023-03-31T19:44:36.428Z,85.04
2023-03-31T19:51:38.035Z,85.57
2023-03-31T19:58:39.816Z,85.76
2023-03-31T20:05:41.487Z,86.68
2023-03-31T20:12:43.349Z,86.40
2023-03-31T20:19:45.103Z,86.50
2023-03-31T20:26:46.817Z,85.92
2023-03-31T20:33:48.390Z,85.55
2023-03-31T20:40:49.980Z,85.70
2023-03-31T20:47:52.287Z,87.35
2023-03-31T20:54:53.896Z,87.54
2023-03-31T21:01:55.547Z,88.08
2023-03-31T21:08:59.960Z,87.56
2023-03-31T21:16:01.907Z,87.19
2023-03-31T21:23:03.522Z,84.72
2023-03-31T21:30:05.728Z,85.69
2023-03-31T21:37:08.741Z,86.16
2023-03-31T21:44:10.397Z,85.46
2023-03-31T21:51:11.955Z,85.28
2023-03-31T21:58:13.801Z,87.10
2023-03-31T22:05:15.797Z,87.22
2023-03-31T22:12:17.389Z,85.82
2023-03-31T22:19:19.627Z,86.64
2023-03-31T22:26:21.813Z,86.35
2023-03-31T22:33:23.406Z,85.27
2023-03-31T22:40:25.020Z,86.70
2023-03-31T22:47:27.061Z,87.18
2023-03-31T22:54:28.707Z,87.34
2023-03-31T23:01:30.531Z,86.82
2023-03-31T23:08:33.207Z,86.69
2023-03-31T23:15:35.463Z,86.63
2023-03-31T23:22:37.375Z,87.29
2023-03-31T23:29:38.994Z,87.64
2023-03-31T23:36:40.657Z,87.92
2023-03-31T23:43:42.434Z,88.21
2023-03-31T23:50:44.171Z,88.13
2023-03-31T23:57:46.416Z,87.33
